Charter Quote
Worldwide +1-877-727-2538 Call
Select Language Lang
SAFETY RELIABILITY EXPERIENCE

Private Jet Charter Services - Baotou Airport (ZBOW)

Paramount Business Jets offers private jet charter flights and luxury airliner charters to and from Baotou Airport.

AIRPORT INFORMATION
ICAOZBOW
IATABAV
LOCATIONBaotou, China
FACILITY TYPEAIRPORT

At Paramount Business Jets you can hire chartered private jets to and from Baotou Airport with as little as 4 hours of notice. All flights booked via Paramount Business Jets are operated by certified direct air carriers that meet and exceed the FAA part 135 and 121 protocol or a foreign equivalent safety authority. Furthermore, Paramount Business Jets subscribes to ARGUS for their third party safety checks of operators, aircraft, and crews prior each and every flight to and from Baotou Airport and worldwide.

  • Quote a trip using Baotou Airport or call us 24/7 - 365 days a year at +1-877-727-2538.
Questions? Call +1-877-727-2538

METAR Weather Data at Baotou Airport, ZBOW, BAV

STATIONZBOW
OBSERVEDTue Jun 11, 17:00 UTC
NOWTue Jul 16, 04:01 UTC
AGE827:01 hr ago
WINDWNW at 4 mph
VISIBILITYgreater than 7 miles
CLOUDSclear skies
TEMP73°F (23°C)
DEWPT54°F (12°C)
HUMIDITY50%
BAROMETER1011 hPa (29.85 in Hg)
METARZBOW 111700Z 30002MPS CAVOK 23/12 Q1011 NOSIG

Call us on +1-877-727-2538 (24 Hours) to Hire a Private Jet or Get a Quick Quote.

Find Airports Near any Location

Processing
...